Time;durP1;ratioP1;P1;durP2;ratioP2;P2;SDS_P1;SDS_P2;PMS_P1;PMS_P2;Temp;Humidity;BMP_temperature;BMP_pressure;BME280_temperature;BME280_humidity;BME280_pressure;Samples;Min_cycle;Max_cycle;Signal;HPM_P1;HPM_P2
2022/07/02 00:00:04;;;;;;;2.00;1.40;;;19.20;55.00;;;;;;20476;6861;279748;31
2022/07/02 00:02:29;;;;;;;4.43;1.67;;;19.30;54.80;;;;;;20698;6861;117308;31
2022/07/02 00:04:58;;;;;;;2.60;1.35;;;19.00;55.20;;;;;;20484;6861;312744;31
2022/07/02 00:07:24;;;;;;;2.20;1.77;;;19.00;55.10;;;;;;20475;6861;310153;31
2022/07/02 00:09:50;;;;;;;1.87;1.70;;;19.20;54.90;;;;;;20492;6861;307520;31
2022/07/02 00:12:15;;;;;;;1.73;1.62;;;19.30;54.50;;;;;;20715;6861;116806;31
2022/07/02 00:14:41;;;;;;;2.15;1.40;;;19.10;55.10;;;;;;20516;6861;310925;31
2022/07/02 00:17:06;;;;;;;3.62;1.52;;;19.00;54.90;;;;;;20530;6862;280915;31
2022/07/02 00:19:32;;;;;;;1.40;1.30;;;19.20;54.50;;;;;;20746;6862;116210;31
2022/07/02 00:21:57;;;;;;;1.52;1.42;;;19.00;55.00;;;;;;20738;6862;119090;31
2022/07/02 00:24:23;;;;;;;1.90;1.43;;;18.70;55.80;;;;;;20760;6862;116502;31
2022/07/02 00:26:57;;;;;;;1.30;1.20;;;18.40;56.40;;;;;;20762;6862;117654;31
2022/07/02 00:29:27;;;;;;;3.00;1.63;;;18.10;56.80;;;;;;20507;6862;279403;31
2022/07/02 00:31:52;;;;;;;1.37;1.27;;;18.30;56.50;;;;;;20444;6862;281489;31
2022/07/02 00:34:18;;;;;;;1.30;1.20;;;18.60;55.80;;;;;;20701;6862;117773;31
2022/07/02 00:36:43;;;;;;;1.80;1.50;;;18.50;56.10;;;;;;20476;6862;323442;31
2022/07/02 00:39:09;;;;;;;1.52;1.42;;;18.60;56.00;;;;;;20500;6862;309229;31
2022/07/02 00:41:36;;;;;;;2.03;1.50;;;18.80;55.50;;;;;;20694;6862;117715;31
2022/07/02 00:44:02;;;;;;;2.80;1.70;;;18.60;55.90;;;;;;20452;6862;308665;31
2022/07/02 00:46:28;;;;;;;3.00;1.47;;;18.60;55.70;;;;;;20688;6862;122204;31
2022/07/02 00:48:53;;;;;;;1.80;1.17;;;18.40;56.10;;;;;;20706;6862;117268;31
2022/07/02 00:51:19;;;;;;;2.30;1.40;;;18.10;56.90;;;;;;20707;6860;116316;31
2022/07/02 00:53:47;;;;;;;1.43;1.20;;;17.90;57.60;;;;;;20691;6861;117586;31
2022/07/02 00:56:11;;;;;;;1.50;1.40;;;17.70;58.20;;;;;;20494;6861;280539;31
2022/07/02 00:58:37;;;;;;;1.63;1.40;;;18.00;58.20;;;;;;20706;6861;117345;31
2022/07/02 01:01:03;;;;;;;1.80;1.35;;;18.10;58.20;;;;;;20495;6861;277529;31
2022/07/02 01:03:28;;;;;;;4.93;1.58;;;18.30;57.60;;;;;;20507;6861;309426;31
2022/07/02 01:05:54;;;;;;;1.67;1.23;;;18.60;57.30;;;;;;20685;6861;117123;31
2022/07/02 01:11:08;;;;;;;1.17;1.07;;;18.60;57.30;;;;;;20701;6861;117553;31
2022/07/02 01:13:33;;;;;;;2.05;1.23;;;18.40;57.50;;;;;;20470;6861;308453;31
2022/07/02 01:15:59;;;;;;;3.20;1.50;;;18.40;56.20;;;;;;20468;6861;427797;31
2022/07/02 01:18:24;;;;;;;1.27;1.23;;;18.60;55.70;;;;;;20687;6861;117506;31
2022/07/02 01:20:50;;;;;;;1.03;1.03;;;18.40;56.10;;;;;;20685;6861;121558;31
2022/07/02 01:23:16;;;;;;;1.90;1.35;;;18.10;56.90;;;;;;20492;6861;318752;31
2022/07/02 01:25:41;;;;;;;1.50;1.50;;;18.20;56.20;;;;;;20686;6861;120684;31
2022/07/02 01:28:07;;;;;;;1.80;1.30;;;18.10;56.60;;;;;;20674;6862;117634;31
2022/07/02 01:30:32;;;;;;;1.80;1.30;;;17.80;57.20;;;;;;20707;6862;117197;31
2022/07/02 01:32:59;;;;;;;3.60;1.30;;;17.60;57.80;;;;;;20702;6861;119114;31
2022/07/02 01:35:24;;;;;;;1.00;1.00;;;17.40;58.30;;;;;;20709;6862;119669;31
2022/07/02 01:37:50;;;;;;;2.77;1.50;;;17.30;58.60;;;;;;20696;6862;117467;31
2022/07/02 01:40:15;;;;;;;2.78;1.30;;;17.20;58.90;;;;;;20715;6862;117181;31
2022/07/02 01:42:41;;;;;;;1.87;1.30;;;17.10;59.70;;;;;;20490;6862;310836;31
2022/07/02 01:45:07;;;;;;;1.23;1.07;;;17.40;58.20;;;;;;20717;6862;117289;31
2022/07/02 01:47:32;;;;;;;1.33;1.23;;;17.40;58.10;;;;;;20712;6862;116946;31
2022/07/02 01:49:58;;;;;;;1.37;1.27;;;17.20;58.40;;;;;;20683;6862;121134;31
2022/07/02 01:52:26;;;;;;;2.08;1.30;;;17.10;58.80;;;;;;20686;6862;123047;31
2022/07/02 01:54:50;;;;;;;1.57;1.30;;;17.00;59.00;;;;;;20467;6862;309316;31
2022/07/02 01:57:16;;;;;;;2.20;1.67;;;17.30;58.30;;;;;;20692;6862;119309;31
2022/07/02 01:59:42;;;;;;;1.83;1.20;;;17.30;57.90;;;;;;20449;6862;309778;31
2022/07/02 02:02:07;;;;;;;1.50;1.40;;;17.50;57.00;;;;;;20693;6860;117097;31
2022/07/02 02:04:33;;;;;;;1.50;1.40;;;17.40;57.10;;;;;;20489;6861;337680;31
2022/07/02 02:06:58;;;;;;;1.90;1.77;;;17.60;56.60;;;;;;20494;6861;278652;31
2022/07/02 02:09:24;;;;;;;4.53;1.50;;;17.90;55.50;;;;;;20715;6861;117632;31
2022/07/02 02:11:49;;;;;;;2.40;1.50;;;17.70;55.80;;;;;;20679;6861;141351;31
2022/07/02 02:14:16;;;;;;;2.72;1.60;;;17.40;56.50;;;;;;20711;6861;121110;31
2022/07/02 02:16:42;;;;;;;2.47;1.40;;;17.00;57.20;;;;;;20723;6861;116926;31
2022/07/02 02:19:08;;;;;;;1.90;1.50;;;16.80;58.00;;;;;;20499;6861;279635;31
2022/07/02 02:21:33;;;;;;;1.90;1.80;;;17.10;57.40;;;;;;20491;6861;309611;31
2022/07/02 02:23:59;;;;;;;1.80;1.70;;;17.40;56.60;;;;;;20470;6861;279729;31
2022/07/02 02:26:24;;;;;;;2.70;1.80;;;17.70;56.30;;;;;;20697;6861;119960;31
2022/07/02 02:28:51;;;;;;;1.70;1.60;;;17.50;56.50;;;;;;20681;6861;117157;31
2022/07/02 02:31:17;;;;;;;2.80;1.67;;;17.20;57.30;;;;;;20686;6861;117017;31
2022/07/02 02:33:44;;;;;;;2.07;1.83;;;17.00;58.00;;;;;;20673;6861;121164;31
2022/07/02 02:36:09;;;;;;;1.73;1.48;;;16.80;58.40;;;;;;20476;6861;279952;31
2022/07/02 02:38:38;;;;;;;1.93;1.73;;;17.00;57.70;;;;;;20690;6861;117197;31
2022/07/02 02:41:00;;;;;;;1.95;1.85;;;17.00;57.70;;;;;;20665;6862;117246;31
2022/07/02 02:43:26;;;;;;;2.67;1.80;;;16.80;58.00;;;;;;20719;6862;117739;31
2022/07/02 02:45:52;;;;;;;3.80;2.17;;;16.70;58.30;;;;;;20524;6862;309944;31
2022/07/02 02:48:17;;;;;;;2.77;2.00;;;16.90;57.30;;;;;;20747;6862;117719;31
2022/07/02 02:50:43;;;;;;;2.65;1.80;;;16.80;57.40;;;;;;20737;6862;119912;31
2022/07/02 02:53:08;;;;;;;2.43;1.80;;;16.70;58.00;;;;;;20688;6862;117953;31
2022/07/02 02:55:34;;;;;;;4.95;1.67;;;16.50;58.60;;;;;;20695;6862;117697;31
2022/07/02 02:57:59;;;;;;;1.80;1.70;;;16.40;59.10;;;;;;20676;6862;124449;31
2022/07/02 03:00:25;;;;;;;3.40;2.00;;;16.30;59.40;;;;;;20485;6862;279849;31
2022/07/02 03:02:51;;;;;;;4.63;1.80;;;16.50;58.10;;;;;;20689;6862;117731;31
2022/07/02 03:05:16;;;;;;;4.80;1.60;;;16.60;58.10;;;;;;20478;6862;307845;31
2022/07/02 03:07:42;;;;;;;1.33;1.23;;;16.80;57.80;;;;;;20684;6862;117244;31
2022/07/02 03:10:08;;;;;;;2.20;1.40;;;16.90;58.00;;;;;;20685;6862;117602;31
2022/07/02 03:12:33;;;;;;;2.43;1.40;;;16.60;58.30;;;;;;20688;6862;117274;31
2022/07/02 03:14:59;;;;;;;1.40;1.30;;;16.50;58.60;;;;;;20702;6860;116952;31
2022/07/02 03:17:24;;;;;;;1.47;1.37;;;16.40;58.90;;;;;;20686;6861;117865;31
2022/07/02 03:19:51;;;;;;;2.00;1.90;;;16.20;58.90;;;;;;20680;6861;117355;31
2022/07/02 03:22:15;;;;;;;1.73;1.43;;;16.10;59.00;;;;;;20692;6861;117378;31
2022/07/02 03:24:41;;;;;;;1.83;1.73;;;16.00;59.30;;;;;;20702;6861;117102;31
2022/07/02 03:27:08;;;;;;;3.42;2.30;;;16.00;59.60;;;;;;20493;6861;311952;31
2022/07/02 03:29:35;;;;;;;2.27;2.13;;;16.30;57.70;;;;;;20495;6861;310185;31
2022/07/02 03:32:00;;;;;;;2.13;2.03;;;16.70;56.50;;;;;;20461;6861;309240;31
2022/07/02 03:34:27;;;;;;;2.33;1.95;;;17.00;55.90;;;;;;20695;6861;118206;31
2022/07/02 03:36:52;;;;;;;2.20;2.03;;;16.90;56.30;;;;;;20674;6861;116369;31
2022/07/02 03:39:18;;;;;;;3.95;1.70;;;16.60;57.20;;;;;;20691;6861;117493;31
2022/07/02 03:41:44;;;;;;;2.70;1.37;;;16.40;57.80;;;;;;20513;6861;307968;31
2022/07/02 03:44:09;;;;;;;1.25;1.15;;;16.60;57.00;;;;;;20737;6861;116763;31
2022/07/02 03:46:35;;;;;;;4.12;1.70;;;16.60;57.30;;;;;;20702;6861;117619;31
2022/07/02 03:49:01;;;;;;;3.30;1.63;;;16.40;57.80;;;;;;20496;6861;278996;31
2022/07/02 03:51:27;;;;;;;2.67;1.80;;;16.60;56.10;;;;;;20479;6862;317903;31
2022/07/02 03:53:53;;;;;;;2.30;2.03;;;16.90;55.50;;;;;;20685;6862;118164;31
2022/07/02 03:56:18;;;;;;;2.30;2.10;;;16.70;55.80;;;;;;20482;6862;280297;31
2022/07/02 03:58:44;;;;;;;2.20;2.10;;;16.80;55.80;;;;;;20687;6862;117144;31
2022/07/02 04:01:09;;;;;;;2.10;2.00;;;16.70;56.30;;;;;;20692;6862;116606;31
2022/07/02 04:03:35;;;;;;;2.65;2.45;;;16.40;57.10;;;;;;20478;6862;318514;31
2022/07/02 04:06:00;;;;;;;2.40;1.97;;;16.60;56.80;;;;;;20663;6862;119813;31
2022/07/02 04:08:26;;;;;;;2.47;2.28;;;16.60;57.20;;;;;;20478;6862;281835;31
2022/07/02 04:10:52;;;;;;;3.27;2.33;;;16.80;57.30;;;;;;20699;6862;117115;31
2022/07/02 04:13:17;;;;;;;2.45;1.90;;;16.80;57.40;;;;;;20464;6862;340196;31
2022/07/02 04:15:43;;;;;;;3.35;2.10;;;16.90;56.70;;;;;;20684;6862;121200;31
2022/07/02 04:18:10;;;;;;;1.70;1.60;;;16.90;57.00;;;;;;20695;6862;118536;31
2022/07/02 04:20:35;;;;;;;2.30;2.15;;;16.70;57.50;;;;;;20466;6862;280430;31
2022/07/02 04:23:01;;;;;;;2.10;1.93;;;16.90;56.40;;;;;;20683;6862;117152;31
2022/07/02 04:25:26;;;;;;;2.95;2.03;;;16.90;56.70;;;;;;20694;6859;117241;31
2022/07/02 04:27:52;;;;;;;2.30;2.10;;;16.60;57.20;;;;;;20462;6861;295596;31
2022/07/02 04:30:17;;;;;;;2.60;2.10;;;16.80;57.20;;;;;;20398;6861;309470;31
2022/07/02 04:32:43;;;;;;;2.85;1.50;;;17.20;56.90;;;;;;20676;6861;117012;31
2022/07/02 04:35:09;;;;;;;2.08;1.37;;;17.20;57.20;;;;;;20690;6861;117629;31
2022/07/02 04:37:34;;;;;;;7.43;1.80;;;17.00;57.60;;;;;;20685;6861;117191;31
2022/07/02 04:40:00;;;;;;;15.00;1.70;;;16.80;58.20;;;;;;20470;6861;281252;31
2022/07/02 04:42:25;;;;;;;45.40;2.70;;;17.00;57.20;;;;;;20462;6861;320792;31
2022/07/02 04:44:51;;;;;;;64.57;2.93;;;17.40;56.20;;;;;;20482;6861;279517;31
2022/07/02 04:47:16;;;;;;;43.72;2.33;;;17.70;55.20;;;;;;20480;6861;307017;31
2022/07/02 04:49:43;;;;;;;36.60;3.10;;;17.90;54.80;;;;;;20656;6861;120622;31
2022/07/02 04:52:09;;;;;;;37.20;2.97;;;17.80;55.50;;;;;;20671;6861;118151;31
2022/07/02 04:54:34;;;;;;;77.62;3.60;;;17.60;56.40;;;;;;20445;6861;337952;31
2022/07/02 04:57:00;;;;;;;13.88;2.35;;;17.80;55.70;;;;;;20479;6861;298975;31
2022/07/02 04:59:27;;;;;;;8.38;2.15;;;18.10;55.10;;;;;;20450;6861;280728;31
2022/07/02 05:01:52;;;;;;;17.58;2.25;;;18.40;54.40;;;;;;20420;6861;309047;31
2022/07/02 05:04:18;;;;;;;4.50;1.70;;;18.60;53.90;;;;;;20697;6862;117311;31
2022/07/02 05:06:44;;;;;;;3.30;1.80;;;18.40;54.30;;;;;;20486;6862;282485;31
2022/07/02 05:09:09;;;;;;;2.70;2.10;;;18.50;53.80;;;;;;20688;6862;117276;31
2022/07/02 05:11:35;;;;;;;2.30;2.20;;;18.30;54.30;;;;;;20469;6862;280936;31
2022/07/02 05:14:00;;;;;;;5.32;2.30;;;18.30;53.90;;;;;;20426;6862;308766;31
2022/07/02 05:16:26;;;;;;;1.60;1.60;;;18.40;54.20;;;;;;20691;6862;69547;31
2022/07/02 05:18:51;;;;;;;1.80;1.70;;;18.20;54.70;;;;;;20675;6862;116932;31
2022/07/02 05:21:17;;;;;;;1.85;1.83;;;17.90;55.60;;;;;;20476;6862;284475;31
2022/07/02 05:23:42;;;;;;;6.07;2.13;;;17.90;55.50;;;;;;20447;6862;326854;31
2022/07/02 05:26:10;;;;;;;1.90;1.80;;;18.10;55.40;;;;;;20481;6862;279533;31
2022/07/02 05:28:35;;;;;;;2.60;2.40;;;18.30;55.00;;;;;;20691;6862;117838;31
2022/07/02 05:31:01;;;;;;;3.07;2.87;;;18.10;55.60;;;;;;20479;6862;284442;31
2022/07/02 05:33:28;;;;;;;1.75;1.75;;;18.20;55.80;;;;;;20700;6862;117124;31
2022/07/02 05:35:55;;;;;;;1.60;1.60;;;18.10;56.10;;;;;;20678;6862;117659;31
2022/07/02 05:38:20;;;;;;;2.40;2.30;;;17.80;56.80;;;;;;20494;6860;279474;31
2022/07/02 05:40:46;;;;;;;2.97;2.78;;;17.90;56.80;;;;;;20470;6861;309387;31
2022/07/02 05:43:13;;;;;;;2.33;2.23;;;18.20;56.60;;;;;;20686;6861;120298;31
2022/07/02 05:45:38;;;;;;;3.00;2.83;;;18.10;56.90;;;;;;20690;6861;117035;31
2022/07/02 05:48:05;;;;;;;2.80;2.70;;;17.90;57.60;;;;;;20643;6861;117474;31
2022/07/02 05:50:31;;;;;;;3.20;2.67;;;17.70;58.20;;;;;;20687;6861;117075;31
2022/07/02 05:52:57;;;;;;;3.50;3.30;;;17.60;58.70;;;;;;20471;6861;310587;31
2022/07/02 05:55:22;;;;;;;3.53;3.42;;;17.90;57.90;;;;;;20472;6861;308300;31
2022/07/02 05:57:48;;;;;;;3.13;2.93;;;18.40;57.10;;;;;;20666;6861;117901;31
2022/07/02 06:00:13;;;;;;;3.50;2.60;;;18.40;57.30;;;;;;20665;6861;117528;31
2022/07/02 06:02:39;;;;;;;3.00;2.90;;;18.30;57.90;;;;;;20474;6861;298842;31
2022/07/02 06:07:38;;;;;;;3.00;2.80;;;18.60;57.40;;;;;;20688;6861;117124;31
2022/07/02 06:07:40;;;;;;;2.80;2.60;;;18.70;57.60;;;;;;20633;6861;116930;31
2022/07/02 06:10:05;;;;;;;2.30;2.20;;;18.60;58.20;;;;;;20472;6861;308831;31
2022/07/02 06:12:31;;;;;;;2.50;2.40;;;19.00;58.20;;;;;;20678;6861;116961;31
2022/07/02 06:14:56;;;;;;;1.90;1.80;;;19.30;59.30;;;;;;20695;6862;117138;31
2022/07/02 06:17:22;;;;;;;2.42;2.33;;;19.70;60.20;;;;;;20699;6862;116957;31
2022/07/02 06:19:48;;;;;;;2.63;2.43;;;20.20;60.50;;;;;;20674;6862;117178;31
2022/07/02 06:22:14;;;;;;;2.00;1.90;;;20.80;60.30;;;;;;20474;6862;296660;31
2022/07/02 06:24:40;;;;;;;2.40;2.30;;;21.80;55.10;;;;;;20482;6862;280393;31
2022/07/02 06:27:05;;;;;;;2.95;1.80;;;23.00;52.10;;;;;;20692;6862;120330;31
2022/07/02 06:29:31;;;;;;;2.05;1.95;;;23.70;52.80;;;;;;20460;6862;308945;31
2022/07/02 06:31:57;;;;;;;3.47;1.57;;;24.40;49.20;;;;;;20671;6862;117183;31
2022/07/02 06:34:22;;;;;;;1.62;1.52;;;24.90;50.40;;;;;;20693;6862;117288;31
2022/07/02 06:36:48;;;;;;;1.93;1.70;;;25.20;50.90;;;;;;20697;6862;117200;31
2022/07/02 06:39:16;;;;;;;2.05;1.80;;;25.40;51.20;;;;;;20511;6862;300319;31
2022/07/02 06:44:28;;;;;;;1.03;1.03;;;26.40;47.50;;;;;;20539;6862;307351;31
2022/07/02 06:46:58;;;;;;;1.57;1.40;;;27.10;42.90;;;;;;20566;6862;308113;31
2022/07/02 06:49:24;;;;;;;2.00;1.30;;;27.80;40.80;;;;;;20721;6860;117062;31
2022/07/02 06:51:50;;;;;;;1.27;1.23;;;28.00;43.10;;;;;;20469;6861;339143;31
2022/07/02 06:54:16;;;;;;;1.50;1.40;;;28.40;40.60;;;;;;20500;6861;280226;31
2022/07/02 06:56:41;;;;;;;1.50;1.20;;;29.00;39.30;;;;;;20689;6861;118238;31
2022/07/02 06:59:06;;;;;;;1.43;1.43;;;29.00;41.30;;;;;;20701;6861;117277;31
2022/07/02 07:01:32;;;;;;;1.15;1.15;;;28.90;42.20;;;;;;20482;6861;305407;31
2022/07/02 07:03:57;;;;;;;1.10;1.10;;;29.20;38.30;;;;;;20682;6861;121362;31
2022/07/02 07:06:24;;;;;;;2.12;1.30;;;29.30;40.00;;;;;;20486;6861;309878;31
2022/07/02 07:08:55;;;;;;;2.20;1.20;;;29.60;38.00;;;;;;20694;6861;121161;31
2022/07/02 07:11:21;;;;;;;1.10;1.10;;;29.60;39.50;;;;;;20484;6861;309442;31
2022/07/02 07:13:47;;;;;;;1.50;1.40;;;29.70;37.00;;;;;;20673;6861;117562;31
2022/07/02 07:16:13;;;;;;;1.25;1.15;;;29.60;39.00;;;;;;20491;6861;309479;31
2022/07/02 07:18:39;;;;;;;1.17;1.17;;;29.70;36.80;;;;;;20487;6861;310279;31
2022/07/02 07:21:05;;;;;;;1.27;1.17;;;29.70;36.90;;;;;;20687;6861;117027;31
2022/07/02 07:23:31;;;;;;;0.95;0.95;;;29.40;38.60;;;;;;20490;6861;309852;31
2022/07/02 07:25:56;;;;;;;1.10;1.00;;;29.30;37.80;;;;;;20671;6861;117595;31
2022/07/02 07:28:26;;;;;;;1.10;1.10;;;29.00;38.90;;;;;;20696;6862;117513;31
2022/07/02 07:30:47;;;;;;;3.05;1.42;;;28.60;39.20;;;;;;20459;6862;309110;31
2022/07/02 07:33:13;;;;;;;1.20;1.20;;;28.30;37.90;;;;;;20460;6862;312040;31
2022/07/02 07:35:39;;;;;;;1.27;1.20;;;28.30;38.50;;;;;;20478;6862;337860;31
2022/07/02 07:38:04;;;;;;;1.00;1.00;;;28.20;38.20;;;;;;20457;6862;311752;31
2022/07/02 07:40:31;;;;;;;1.00;1.00;;;28.00;37.00;;;;;;20684;6862;116948;31
2022/07/02 07:42:56;;;;;;;0.90;0.90;;;27.70;38.20;;;;;;20482;6862;308787;31
2022/07/02 07:45:22;;;;;;;1.07;1.07;;;27.40;38.20;;;;;;20678;6862;117257;31
2022/07/02 07:47:48;;;;;;;0.95;0.95;;;27.00;39.30;;;;;;20484;6862;280490;31
2022/07/02 07:50:13;;;;;;;0.80;0.80;;;27.00;39.40;;;;;;20477;6862;307851;31
2022/07/02 07:52:39;;;;;;;0.85;0.85;;;27.00;38.90;;;;;;20476;6862;338206;31
2022/07/02 07:55:05;;;;;;;1.20;0.80;;;27.10;39.50;;;;;;20681;6862;117670;31
2022/07/02 07:57:30;;;;;;;0.67;0.67;;;26.90;40.20;;;;;;20681;6862;121043;31
2022/07/02 07:59:56;;;;;;;1.00;1.00;;;26.60;40.70;;;;;;20677;6860;116949;31
2022/07/02 08:02:21;;;;;;;0.73;0.73;;;26.30;41.30;;;;;;20678;6861;117283;31
2022/07/02 08:04:47;;;;;;;0.80;0.80;;;26.00;41.80;;;;;;20475;6861;280425;31
2022/07/02 08:07:14;;;;;;;1.07;0.90;;;26.30;40.70;;;;;;20449;6861;278760;31
2022/07/02 08:09:39;;;;;;;1.67;0.83;;;26.60;39.10;;;;;;20671;6861;117076;31
2022/07/02 08:12:05;;;;;;;1.50;0.80;;;26.60;40.30;;;;;;20472;6861;317944;31
2022/07/02 08:14:30;;;;;;;0.77;0.77;;;26.60;39.00;;;;;;20417;6861;301551;31
2022/07/02 08:16:56;;;;;;;0.80;0.80;;;26.80;39.10;;;;;;20447;6861;312079;31
2022/07/02 08:19:22;;;;;;;1.13;0.87;;;27.00;38.80;;;;;;20649;6861;117506;31
2022/07/02 08:21:47;;;;;;;2.50;1.10;;;26.80;40.00;;;;;;20425;6861;283115;31
2022/07/02 08:24:13;;;;;;;2.00;1.90;;;26.90;39.30;;;;;;20461;6861;309220;31
2022/07/02 08:26:38;;;;;;;1.10;1.00;;;27.00;38.40;;;;;;20465;6861;335853;31
2022/07/02 08:29:04;;;;;;;0.90;0.90;;;27.00;37.70;;;;;;20679;6861;117259;31
2022/07/02 08:31:29;;;;;;;2.00;0.73;;;26.80;39.20;;;;;;20676;6861;117063;31
2022/07/02 08:33:55;;;;;;;2.40;0.90;;;26.50;40.30;;;;;;20654;6861;117571;31
2022/07/02 08:36:20;;;;;;;1.93;0.90;;;26.30;41.20;;;;;;20678;6861;118815;31
2022/07/02 08:38:46;;;;;;;1.77;0.80;;;26.20;41.80;;;;;;20460;6862;280975;31
2022/07/02 08:41:12;;;;;;;1.57;0.87;;;26.40;39.90;;;;;;20679;6862;117426;31
2022/07/02 08:43:37;;;;;;;0.90;0.80;;;26.60;40.80;;;;;;20680;6862;119827;31
2022/07/02 08:46:04;;;;;;;0.82;0.82;;;26.50;41.10;;;;;;20431;6862;309031;31
2022/07/02 08:48:30;;;;;;;0.80;0.80;;;26.80;39.80;;;;;;20460;6862;308784;31
2022/07/02 08:50:55;;;;;;;0.93;0.90;;;27.10;39.60;;;;;;20662;6862;117120;31
2022/07/02 08:53:21;;;;;;;1.13;1.03;;;27.20;40.60;;;;;;20456;6862;279455;31
2022/07/02 08:55:48;;;;;;;0.98;0.88;;;27.40;39.30;;;;;;20446;6862;279613;31
2022/07/02 08:58:13;;;;;;;0.90;0.90;;;27.60;38.80;;;;;;20437;6862;282209;31
2022/07/02 09:00:39;;;;;;;0.77;0.77;;;27.80;37.90;;;;;;20668;6862;117421;31
2022/07/02 09:03:04;;;;;;;1.92;0.80;;;27.70;38.90;;;;;;20680;6862;118348;31
2022/07/02 09:05:31;;;;;;;2.53;0.90;;;27.40;39.80;;;;;;20671;6862;117121;31
2022/07/02 09:07:57;;;;;;;0.83;0.80;;;27.20;40.30;;;;;;20652;6862;117328;31
2022/07/02 09:10:22;;;;;;;0.80;0.80;;;27.00;40.20;;;;;;20470;6862;337253;31
2022/07/02 09:12:48;;;;;;;0.87;0.63;;;27.20;38.30;;;;;;20700;6860;120378;31
2022/07/02 09:15:13;;;;;;;1.60;0.80;;;27.20;38.40;;;;;;20488;6861;309059;31
2022/07/02 09:17:39;;;;;;;0.83;0.83;;;27.40;37.00;;;;;;20688;6861;121364;31
2022/07/02 09:20:05;;;;;;;0.70;0.70;;;27.40;37.80;;;;;;20465;6861;296242;31
2022/07/02 09:22:35;;;;;;;0.70;0.70;;;27.50;36.50;;;;;;20728;6861;117593;31
2022/07/02 09:25:20;;;;;;;0.80;0.80;;;27.60;37.20;;;;;;20513;6861;308711;31
2022/07/02 09:27:46;;;;;;;0.70;0.60;;;27.70;34.80;;;;;;20716;6861;117180;31
2022/07/02 09:30:11;;;;;;;0.60;0.60;;;27.70;36.40;;;;;;20515;6861;308939;31
2022/07/02 09:32:40;;;;;;;0.40;0.37;;;27.90;34.20;;;;;;20729;6861;116302;31
2022/07/02 09:35:07;;;;;;;0.60;0.60;;;27.90;34.80;;;;;;20524;6861;278735;31
2022/07/02 09:37:33;;;;;;;0.50;0.50;;;28.10;31.40;;;;;;20528;6861;336760;31
2022/07/02 09:40:02;;;;;;;1.23;0.50;;;28.40;29.90;;;;;;20529;6861;277279;31
2022/07/02 09:42:28;;;;;;;0.93;0.50;;;28.60;29.50;;;;;;20489;6861;308529;31
2022/07/02 09:44:55;;;;;;;0.40;0.40;;;28.70;29.30;;;;;;20716;6861;117165;31
2022/07/02 09:47:40;;;;;;;0.57;0.57;;;28.50;30.60;;;;;;20724;6861;116384;31
2022/07/02 09:50:06;;;;;;;1.20;0.50;;;28.20;31.30;;;;;;20497;6862;308547;31
2022/07/02 09:52:31;;;;;;;0.90;0.53;;;28.20;29.20;;;;;;20473;6862;309103;31
2022/07/02 09:54:57;;;;;;;0.53;0.53;;;28.40;29.00;;;;;;20720;6862;117579;31
2022/07/02 09:57:26;;;;;;;0.50;0.50;;;28.30;30.30;;;;;;20724;6862;117113;31
2022/07/02 09:59:49;;;;;;;0.40;0.40;;;28.10;31.10;;;;;;20689;6862;117784;31
2022/07/02 10:02:23;;;;;;;0.40;0.40;;;27.90;31.20;;;;;;20493;6862;335833;31
2022/07/02 10:04:55;;;;;;;0.40;0.40;;;27.90;29.60;;;;;;20703;6862;117529;31
2022/07/02 10:07:21;;;;;;;0.80;0.47;;;28.00;31.00;;;;;;20679;6861;115362;31
2022/07/02 10:09:47;;;;;;;3.90;0.50;;;27.90;31.50;;;;;;20669;6862;118088;31
2022/07/02 10:12:12;;;;;;;1.60;0.30;;;27.70;32.00;;;;;;20699;6862;117330;31
2022/07/02 10:14:38;;;;;;;0.57;0.37;;;27.70;32.30;;;;;;20696;6862;117438;31
2022/07/02 10:17:05;;;;;;;1.10;0.60;;;27.60;32.60;;;;;;20495;6862;294348;31
2022/07/02 10:19:32;;;;;;;0.60;0.60;;;27.90;31.60;;;;;;20704;6862;116942;31
2022/07/02 10:21:57;;;;;;;0.57;0.57;;;28.00;32.10;;;;;;20673;6862;117120;31
2022/07/02 10:24:23;;;;;;;0.50;0.50;;;28.00;32.30;;;;;;20707;6860;117781;31
2022/07/02 10:26:49;;;;;;;1.33;0.60;;;27.90;32.10;;;;;;20703;6861;117133;31
2022/07/02 10:29:16;;;;;;;1.00;0.40;;;27.80;32.20;;;;;;20495;6861;338366;31
2022/07/02 10:31:41;;;;;;;0.50;0.40;;;28.10;30.60;;;;;;20477;6861;306919;31
2022/07/02 10:34:32;;;;;;;0.93;0.40;;;28.50;29.20;;;;;;20581;6861;120696;31
2022/07/02 10:36:58;;;;;;;1.97;0.80;;;28.60;30.70;;;;;;20151;6861;118053;31
2022/07/02 10:39:24;;;;;;;0.63;0.60;;;28.40;31.50;;;;;;20790;6861;116472;31
2022/07/02 10:41:49;;;;;;;0.63;0.50;;;28.30;32.00;;;;;;20754;6861;117580;31
2022/07/02 10:44:16;;;;;;;0.63;0.63;;;28.20;31.80;;;;;;20739;6861;118335;31
2022/07/02 10:46:47;;;;;;;1.03;0.37;;;28.20;32.30;;;;;;20728;6861;117523;31
2022/07/02 10:49:12;;;;;;;0.37;0.30;;;28.10;32.30;;;;;;20719;6861;117349;31
2022/07/02 10:51:40;;;;;;;0.43;0.40;;;28.10;31.80;;;;;;20463;6861;338269;31
2022/07/02 10:54:05;;;;;;;0.53;0.37;;;28.30;29.90;;;;;;20697;6861;117938;31
2022/07/02 10:56:31;;;;;;;0.37;0.33;;;28.40;30.20;;;;;;20697;6861;117177;31
2022/07/02 10:58:58;;;;;;;1.40;0.60;;;28.30;30.60;;;;;;20420;6861;304492;31
2022/07/02 11:01:23;;;;;;;1.27;0.40;;;28.40;29.70;;;;;;20670;6862;117761;31
2022/07/02 11:03:52;;;;;;;1.30;0.50;;;28.40;30.60;;;;;;20465;6862;309747;31
2022/07/02 11:06:20;;;;;;;0.50;0.50;;;28.60;29.70;;;;;;20684;6862;117777;31
2022/07/02 11:08:49;;;;;;;0.60;0.60;;;28.60;30.20;;;;;;20697;6862;117393;31
2022/07/02 11:11:41;;;;;;;2.50;0.50;;;28.40;30.30;;;;;;20694;6862;117317;31
2022/07/02 11:14:07;;;;;;;0.40;0.40;;;28.20;30.60;;;;;;20697;6862;118123;31
2022/07/02 11:16:34;;;;;;;1.00;0.50;;;28.10;31.60;;;;;;20474;6862;309131;31
2022/07/02 11:19:00;;;;;;;0.50;0.50;;;28.30;29.60;;;;;;20668;6862;116894;31
2022/07/02 11:21:27;;;;;;;0.43;0.43;;;28.30;30.20;;;;;;20482;6862;308643;31
2022/07/02 11:23:53;;;;;;;0.30;0.30;;;28.50;28.70;;;;;;20676;6862;141752;31
2022/07/02 11:26:24;;;;;;;0.70;0.50;;;28.50;30.00;;;;;;20486;6862;309532;31
2022/07/02 11:28:47;;;;;;;0.80;0.40;;;28.60;29.80;;;;;;20466;6862;279356;31
2022/07/02 11:31:13;;;;;;;0.60;0.60;;;28.80;29.60;;;;;;20697;6862;116991;31
2022/07/02 11:33:49;;;;;;;0.50;0.50;;;28.80;30.60;;;;;;20485;6862;307830;31
2022/07/02 11:36:14;;;;;;;0.60;0.47;;;28.80;29.40;;;;;;20697;6860;117178;31
2022/07/02 11:38:45;;;;;;;0.70;0.50;;;28.70;30.50;;;;;;20505;6861;308061;31
2022/07/02 11:41:17;;;;;;;0.50;0.50;;;28.70;29.40;;;;;;20697;6861;117464;31
2022/07/02 11:43:44;;;;;;;1.10;0.37;;;28.60;30.50;;;;;;20687;6861;118287;31
2022/07/02 11:46:08;;;;;;;0.87;0.87;;;28.40;31.00;;;;;;20490;6861;298922;31
2022/07/02 11:48:33;;;;;;;0.77;0.53;;;28.50;30.00;;;;;;20701;6861;118168;31
2022/07/02 11:50:59;;;;;;;0.90;0.50;;;28.50;31.10;;;;;;20494;6861;301399;31
2022/07/02 11:53:25;;;;;;;0.80;0.80;;;28.60;29.80;;;;;;20694;6861;117196;31
2022/07/02 11:55:53;;;;;;;1.10;0.60;;;28.60;30.80;;;;;;20459;6861;309297;31
2022/07/02 11:58:18;;;;;;;0.60;0.60;;;28.70;30.70;;;;;;20699;6861;116826;31
2022/07/02 12:00:44;;;;;;;1.35;0.60;;;28.70;32.00;;;;;;20680;6861;117936;31
2022/07/02 12:03:10;;;;;;;0.70;0.70;;;28.60;33.10;;;;;;20478;6861;278821;31
2022/07/02 12:05:35;;;;;;;2.47;0.60;;;28.60;30.10;;;;;;20683;6861;118296;31
2022/07/02 12:08:01;;;;;;;0.93;0.65;;;28.60;31.60;;;;;;20452;6861;278868;31
2022/07/02 12:10:31;;;;;;;0.75;0.60;;;28.60;30.30;;;;;;20469;6861;281668;31
2022/07/02 12:12:53;;;;;;;1.33;0.60;;;28.70;31.00;;;;;;20463;6862;280571;31
2022/07/02 12:15:19;;;;;;;0.50;0.50;;;28.80;30.50;;;;;;20680;6862;117662;31
2022/07/02 12:17:47;;;;;;;0.60;0.60;;;28.70;32.00;;;;;;20659;6862;130261;31
2022/07/02 12:20:15;;;;;;;1.40;0.70;;;28.50;33.10;;;;;;20466;6862;291063;31
2022/07/02 12:22:41;;;;;;;1.03;0.60;;;28.60;31.90;;;;;;20481;6862;288141;31
2022/07/02 12:25:09;;;;;;;0.80;0.80;;;28.80;31.40;;;;;;20706;6862;117566;31
2022/07/02 12:27:36;;;;;;;1.33;0.57;;;28.80;32.30;;;;;;20482;6862;278499;31
2022/07/02 12:30:11;;;;;;;0.80;0.80;;;28.80;31.20;;;;;;20661;6862;117267;31
2022/07/02 12:32:38;;;;;;;0.68;0.68;;;28.70;32.00;;;;;;20439;6862;337611;31
2022/07/02 12:35:10;;;;;;;0.50;0.50;;;28.80;32.10;;;;;;20688;6862;117950;31
2022/07/02 12:37:37;;;;;;;1.30;0.63;;;28.70;32.80;;;;;;20698;6862;117519;31
2022/07/02 12:40:09;;;;;;;1.40;0.70;;;28.40;32.80;;;;;;20425;6862;307661;31
2022/07/02 12:42:59;;;;;;;0.50;0.50;;;28.40;32.30;;;;;;20481;6862;279537;31
2022/07/02 12:45:38;;;;;;;0.77;0.77;;;28.60;31.60;;;;;;20690;6862;117119;31